createdAt,value
2022-12-09T00:00:00.363Z,0
2022-12-09T00:05:00.361Z,0
2022-12-09T00:10:00.340Z,0
2022-12-09T00:15:00.209Z,0
2022-12-09T00:20:00.329Z,0
2022-12-09T00:25:00.396Z,0
2022-12-09T00:30:00.210Z,0
2022-12-09T00:35:00.385Z,0
2022-12-09T00:40:00.528Z,0
2022-12-09T00:45:00.233Z,0
2022-12-09T00:50:00.349Z,0
2022-12-09T00:55:00.357Z,0
2022-12-09T01:00:00.325Z,0
2022-12-09T01:05:00.375Z,0
2022-12-09T01:10:00.497Z,0
2022-12-09T01:15:00.353Z,0
2022-12-09T01:20:00.330Z,0
2022-12-09T01:25:00.305Z,0
2022-12-09T01:30:00.607Z,0
2022-12-09T01:35:00.485Z,0
2022-12-09T01:40:00.265Z,0
2022-12-09T01:45:00.353Z,0
2022-12-09T01:50:00.296Z,0
2022-12-09T01:55:00.218Z,0
2022-12-09T02:00:00.399Z,0
2022-12-09T02:05:00.370Z,0
2022-12-09T02:10:00.254Z,0
2022-12-09T02:15:00.216Z,0
2022-12-09T02:20:00.217Z,0
2022-12-09T02:25:00.229Z,0
2022-12-09T02:30:00.314Z,0
2022-12-09T02:35:00.284Z,0
2022-12-09T02:40:00.308Z,0
2022-12-09T02:45:00.216Z,0
2022-12-09T02:50:00.307Z,0
2022-12-09T02:55:00.208Z,0
2022-12-09T03:00:00.290Z,0
2022-12-09T03:05:00.520Z,0
2022-12-09T03:10:00.488Z,0
2022-12-09T03:15:02.686Z,0
2022-12-09T03:20:00.334Z,0
2022-12-09T03:25:00.597Z,0
2022-12-09T03:30:00.210Z,0
2022-12-09T03:35:00.527Z,0
2022-12-09T03:40:00.229Z,0
2022-12-09T03:45:00.387Z,0
2022-12-09T03:50:00.554Z,0
2022-12-09T03:55:00.339Z,0
2022-12-09T04:00:00.647Z,0
2022-12-09T04:05:00.293Z,0
2022-12-09T04:10:00.495Z,0
2022-12-09T04:15:00.563Z,0
2022-12-09T04:20:00.710Z,0
2022-12-09T04:25:00.222Z,0
2022-12-09T04:30:00.227Z,0
2022-12-09T04:35:00.259Z,0
2022-12-09T04:40:00.343Z,0
2022-12-09T04:45:00.353Z,0
2022-12-09T04:50:00.580Z,0
2022-12-09T04:55:00.249Z,0
2022-12-09T05:00:00.590Z,0
2022-12-09T05:05:00.642Z,0
2022-12-09T05:10:00.428Z,0
2022-12-09T05:15:00.306Z,0
2022-12-09T05:20:00.338Z,0
2022-12-09T05:25:00.526Z,0
2022-12-09T05:30:00.632Z,0
2022-12-09T05:35:00.315Z,0
2022-12-09T05:40:00.657Z,0
2022-12-09T05:45:00.480Z,0
2022-12-09T05:50:05.909Z,0
2022-12-09T05:55:00.449Z,0
2022-12-09T06:00:00.325Z,0
2022-12-09T06:05:00.455Z,0
2022-12-09T06:10:00.391Z,0
2022-12-09T06:15:00.325Z,0
2022-12-09T06:20:00.495Z,0
2022-12-09T06:25:00.211Z,0
2022-12-09T06:30:00.611Z,0
2022-12-09T06:35:00.487Z,0
2022-12-09T06:40:00.689Z,0
2022-12-09T06:45:00.611Z,0
2022-12-09T06:50:06.304Z,0
2022-12-09T06:55:00.702Z,0
2022-12-09T07:00:00.593Z,0
2022-12-09T07:05:00.857Z,11
2022-12-09T07:10:00.407Z,28
2022-12-09T07:40:00.359Z,366
2022-12-09T07:45:00.272Z,502
2022-12-09T07:50:06.346Z,638
2022-12-09T07:55:00.657Z,807
2022-12-09T08:00:00.768Z,1022
2022-12-09T08:05:00.424Z,1233
2022-12-09T08:10:00.419Z,1295
2022-12-09T08:15:00.300Z,1641
2022-12-09T08:20:00.389Z,1845
2022-12-09T08:25:00.406Z,1845
2022-12-09T08:30:00.781Z,2077
2022-12-09T08:35:00.837Z,2077
2022-12-09T08:40:00.339Z,2334
2022-12-09T08:45:02.428Z,2628
2022-12-09T08:50:00.840Z,2954
2022-12-09T08:55:00.739Z,3327
2022-12-09T09:00:03.453Z,3585
2022-12-09T09:05:00.576Z,3585
2022-12-09T09:10:00.521Z,3739
2022-12-09T09:15:00.671Z,4204
2022-12-09T09:20:00.427Z,4204
2022-12-09T09:25:00.294Z,4725
2022-12-09T09:30:00.695Z,4725
2022-12-09T09:35:00.517Z,5311
2022-12-09T09:40:00.449Z,5311
2022-12-09T09:45:00.350Z,5311
2022-12-09T09:50:00.596Z,5983
2022-12-09T09:55:00.735Z,6326
2022-12-09T10:00:07.041Z,6738
2022-12-09T10:05:00.457Z,6738
2022-12-09T10:10:00.858Z,7577
2022-12-09T10:15:00.797Z,7577
2022-12-09T10:20:00.307Z,8529
2022-12-09T10:25:00.783Z,8529
2022-12-09T10:30:00.783Z,9587
2022-12-09T10:35:00.385Z,9587
2022-12-09T10:40:00.337Z,13627
2022-12-09T10:45:00.309Z,12117
2022-12-09T10:50:00.474Z,10143
2022-12-09T10:55:00.410Z,7514
2022-12-09T11:00:00.426Z,7729
2022-12-09T11:05:00.471Z,6858
2022-12-09T11:10:00.973Z,6858
2022-12-09T11:15:00.608Z,8692
2022-12-09T11:20:00.343Z,10106
2022-12-09T11:25:00.421Z,5576
2022-12-09T11:30:05.853Z,3867
2022-12-09T11:35:00.393Z,3427
2022-12-09T11:40:00.201Z,2696
2022-12-09T11:45:01.166Z,2866
2022-12-09T11:50:00.254Z,2366
2022-12-09T11:55:00.218Z,2103
2022-12-09T12:00:04.335Z,2103
2022-12-09T12:05:00.201Z,1869
2022-12-09T12:10:00.229Z,1869
2022-12-09T12:15:00.237Z,1869
2022-12-09T12:20:00.234Z,1869
2022-12-09T12:30:00.290Z,1869
2022-12-09T12:35:00.263Z,1869
2022-12-09T12:40:00.266Z,2184
2022-12-09T12:45:00.266Z,2376
2022-12-09T12:50:00.254Z,2376
2022-12-09T12:55:00.232Z,2112
2022-12-09T13:00:00.230Z,2112
2022-12-09T13:05:00.225Z,2112
2022-12-09T13:10:00.234Z,2112
2022-12-09T13:15:00.240Z,2112
2022-12-09T13:20:00.236Z,2112
2022-12-09T13:25:00.628Z,2112
2022-12-09T13:30:00.272Z,2112
2022-12-09T13:35:00.258Z,2184
2022-12-09T13:40:00.268Z,1876
2022-12-09T13:45:00.263Z,1876
2022-12-09T13:50:00.265Z,1876
2022-12-09T13:55:00.270Z,1661
2022-12-09T14:00:00.270Z,1478
2022-12-09T14:05:00.269Z,1164
2022-12-09T14:10:00.273Z,1035
2022-12-09T14:15:00.281Z,1035
2022-12-09T14:20:00.234Z,918
2022-12-09T14:25:00.262Z,1171
2022-12-09T14:30:00.273Z,925
2022-12-09T14:35:00.263Z,823
2022-12-09T14:40:00.375Z,648
2022-12-09T14:45:00.254Z,648
2022-12-09T14:50:00.271Z,435
2022-12-09T14:55:00.257Z,501
2022-12-09T15:00:00.287Z,501
2022-12-09T15:05:00.566Z,358
2022-12-09T15:10:00.275Z,257
2022-12-09T15:15:00.265Z,218
2022-12-09T15:20:01.113Z,185
2022-12-09T15:25:00.271Z,194
2022-12-09T15:30:00.278Z,144
2022-12-09T15:35:00.262Z,87
2022-12-09T15:40:00.258Z,52
2022-12-09T15:45:00.245Z,38
2022-12-09T15:50:00.249Z,24
2022-12-09T15:55:00.232Z,17
2022-12-09T16:00:00.323Z,10
2022-12-09T16:05:00.261Z,3
2022-12-09T16:10:00.268Z,3
2022-12-09T16:15:00.266Z,3
2022-12-09T16:20:00.230Z,0
2022-12-09T16:25:14.674Z,0
2022-12-09T16:30:00.349Z,0
2022-12-09T16:35:00.266Z,0
2022-12-09T16:40:00.350Z,0
2022-12-09T16:45:00.234Z,0
2022-12-09T16:50:00.256Z,0
2022-12-09T16:55:00.282Z,0
2022-12-09T17:00:00.257Z,0
2022-12-09T17:05:00.249Z,0
2022-12-09T17:10:00.261Z,0
2022-12-09T17:15:00.255Z,0
2022-12-09T17:20:00.447Z,0
2022-12-09T17:25:00.235Z,0
2022-12-09T17:30:00.256Z,0
2022-12-09T17:35:00.235Z,0
2022-12-09T17:40:06.564Z,0
2022-12-09T17:45:00.237Z,0
2022-12-09T17:50:00.279Z,0
2022-12-09T17:55:00.238Z,0
2022-12-09T18:00:00.227Z,0
2022-12-09T18:05:00.233Z,0
2022-12-09T18:15:00.227Z,0
2022-12-09T18:20:00.231Z,0
2022-12-09T18:25:00.235Z,0
2022-12-09T18:30:00.235Z,0
2022-12-09T18:35:00.231Z,0
2022-12-09T18:40:00.247Z,0
2022-12-09T18:45:00.235Z,0
2022-12-09T18:50:00.264Z,0
2022-12-09T18:55:00.256Z,0
2022-12-09T19:00:00.233Z,0
2022-12-09T19:05:00.253Z,0
2022-12-09T19:10:00.262Z,0
2022-12-09T19:15:00.260Z,0
2022-12-09T19:20:00.266Z,0
2022-12-09T19:25:00.263Z,0
2022-12-09T19:30:00.280Z,0
2022-12-09T19:35:00.268Z,0
2022-12-09T19:40:00.263Z,0
2022-12-09T19:45:02.406Z,0
2022-12-09T19:50:00.268Z,0
2022-12-09T19:55:00.264Z,0
2022-12-09T20:00:00.255Z,0
2022-12-09T20:05:00.267Z,0
2022-12-09T20:10:00.238Z,0
2022-12-09T20:15:00.238Z,0
2022-12-09T20:20:00.235Z,0
2022-12-09T20:25:00.237Z,0
2022-12-09T20:30:00.242Z,0
2022-12-09T20:35:05.264Z,0
2022-12-09T20:40:00.233Z,0
2022-12-09T20:45:00.233Z,0
2022-12-09T20:55:00.231Z,0
2022-12-09T21:00:00.224Z,0
2022-12-09T21:05:00.226Z,0
2022-12-09T21:10:00.238Z,0
2022-12-09T21:15:00.212Z,0
2022-12-09T21:20:00.228Z,0
2022-12-09T21:25:00.269Z,0
2022-12-09T21:30:00.271Z,0
2022-12-09T21:35:00.243Z,0
2022-12-09T21:40:00.208Z,0
2022-12-09T21:45:00.229Z,0
2022-12-09T21:50:00.236Z,0
2022-12-09T21:55:00.239Z,0
2022-12-09T22:00:00.226Z,0
2022-12-09T22:05:00.209Z,0
2022-12-09T22:10:00.258Z,0
2022-12-09T22:15:00.216Z,0
2022-12-09T22:25:00.288Z,0
2022-12-09T22:30:00.313Z,0
2022-12-09T22:35:00.315Z,0
2022-12-09T22:40:00.262Z,0
2022-12-09T22:45:00.260Z,0
2022-12-09T22:50:00.312Z,0
2022-12-09T22:55:00.257Z,0
2022-12-09T23:00:00.257Z,0
2022-12-09T23:05:00.263Z,0
2022-12-09T23:10:00.255Z,0
2022-12-09T23:15:00.256Z,0
2022-12-09T23:20:00.253Z,0
2022-12-09T23:25:00.226Z,0
2022-12-09T23:30:00.269Z,0
2022-12-09T23:35:05.829Z,0
2022-12-09T23:40:00.256Z,0
2022-12-09T23:45:00.221Z,0
2022-12-09T23:50:00.278Z,0
2022-12-09T23:55:04.250Z,0
